地図

経路データ

SID SEASON NUMBER BASIN SUBBASIN NAME ISO_TIME NATURE LAT LON WMO_WIND WMO_PRES WMO_AGENCY TRACK_TYPE DIST2LAND LANDFALL IFLAG USA_AGENCY USA_ATCF_ID USA_LAT USA_LON USA_RECORD USA_STATUS USA_WIND USA_PRES USA_SSHS USA_R34_NE USA_R34_SE USA_R34_SW USA_R34_NW USA_R50_NE USA_R50_SE USA_R50_SW USA_R50_NW USA_R64_NE USA_R64_SE USA_R64_SW USA_R64_NW USA_POCI USA_ROCI USA_RMW USA_EYE TOKYO_LAT TOKYO_LON TOKYO_GRADE TOKYO_WIND TOKYO_PRES TOKYO_R50_DIR TOKYO_R50_LONG TOKYO_R50_SHORT TOKYO_R30_DIR TOKYO_R30_LONG TOKYO_R30_SHORT TOKYO_LAND CMA_LAT CMA_LON CMA_CAT CMA_WIND CMA_PRES HKO_LAT HKO_LON HKO_CAT HKO_WIND HKO_PRES NEWDELHI_LAT NEWDELHI_LON NEWDELHI_GRADE NEWDELHI_WIND NEWDELHI_PRES NEWDELHI_CI NEWDELHI_DP NEWDELHI_POCI REUNION_LAT REUNION_LON REUNION_TYPE REUNION_WIND REUNION_PRES REUNION_TNUM REUNION_CI REUNION_RMW REUNION_R34_NE REUNION_R34_SE REUNION_R34_SW REUNION_R34_NW REUNION_R50_NE REUNION_R50_SE REUNION_R50_SW REUNION_R50_NW REUNION_R64_NE REUNION_R64_SE REUNION_R64_SW REUNION_R64_NW BOM_LAT BOM_LON BOM_TYPE BOM_WIND BOM_PRES BOM_TNUM BOM_CI BOM_RMW BOM_R34_NE BOM_R34_SE BOM_R34_SW BOM_R34_NW BOM_R50_NE BOM_R50_SE BOM_R50_SW BOM_R50_NW BOM_R64_NE BOM_R64_SE BOM_R64_SW BOM_R64_NW BOM_ROCI BOM_POCI BOM_EYE BOM_POS_METHOD BOM_PRES_METHOD NADI_LAT NADI_LON NADI_CAT NADI_WIND NADI_PRES WELLINGTON_LAT WELLINGTON_LON WELLINGTON_WIND WELLINGTON_PRES DS824_LAT DS824_LON DS824_STAGE DS824_WIND DS824_PRES TD9636_LAT TD9636_LON TD9636_STAGE TD9636_WIND TD9636_PRES TD9635_LAT TD9635_LON TD9635_WIND TD9635_PRES TD9635_ROCI NEUMANN_LAT NEUMANN_LON NEUMANN_CLASS NEUMANN_WIND NEUMANN_PRES MLC_LAT MLC_LON MLC_CLASS MLC_WIND MLC_PRES USA_GUST BOM_GUST BOM_GUST_PER REUNION_GUST REUNION_GUST_PER USA_SEAHGT USA_SEARAD_NE USA_SEARAD_SE USA_SEARAD_SW USA_SEARAD_NW STORM_SPEED STORM_DIR
1898040S11063 1898 5 SI MM NOT_NAMED 1898-02-09 00:00:00 TS -11.0000 62.9000 main 1160 1131 _________O____ -1 -11.0000 62.9000 TC 7 189
1898040S11063 1898 5 SI MM NOT_NAMED 1898-02-09 03:00:00 TS -11.3425 62.8500 main 1131 1086 _________P____ -1 -11.3425 62.8500 TC 7 188
1898040S11063 1898 5 SI MM NOT_NAMED 1898-02-09 06:00:00 TS -11.7000 62.8000 main 1086 1047 _________O____ -1 -11.7000 62.8000 TC 8 187
1898040S11063 1898 5 SI MM NOT_NAMED 1898-02-09 09:00:00 TS -12.0850 62.7500 main 1042 1003 _________P____ -1 -12.0850 62.7500 TC 8 187
1898040S11063 1898 5 SI MM NOT_NAMED 1898-02-09 12:00:00 TS -12.5000 62.7000 main 1003 960 _________O____ -1 -12.5000 62.7000 TC 9 187
1898040S11063 1898 5 SI MM NOT_NAMED 1898-02-09 15:00:00 TS -12.9425 62.6425 main 960 913 _________P____ -1 -12.9425 62.6425 TC 9 186
1898040S11063 1898 5 SI MM NOT_NAMED 1898-02-09 18:00:00 TS -13.4000 62.6000 main 913 876 _________O____ -1 -13.4000 62.6000 TC 9 184
1898040S11063 1898 5 SI MM NOT_NAMED 1898-02-09 21:00:00 TS -13.8650 62.5925 main 867 831 _________P____ -1 -13.8650 62.5925 TC 9 0
1898040S11063 1898 5 SI MM NOT_NAMED 1898-02-10 00:00:00 TS -14.3000 62.6000 main 831 797 _________O____ -1 -14.3000 62.6000 TC 8 178
1898040S11063 1898 5 SI MM NOT_NAMED 1898-02-10 03:00:00 TS -14.6725 62.6000 main 797 771 _________P____ -1 -14.6725 62.6000 TC 7 0
1898040S11063 1898 5 SI MM NOT_NAMED 1898-02-10 06:00:00 TS -15.0000 62.6000 main 771 746 _________O____ -1 -15.0000 62.6000 TC 6 178
1898040S11063 1898 5 SI MM NOT_NAMED 1898-02-10 09:00:00 TS -15.2925 62.6000 main 746 722 _________P____ -1 -15.2925 62.6000 TC 6 179
1898040S11063 1898 5 SI MM NOT_NAMED 1898-02-10 12:00:00 TS -15.6000 62.6000 main 722 691 _________O____ -1 -15.6000 62.6000 TC 7 0
1898040S11063 1898 5 SI MM NOT_NAMED 1898-02-10 15:00:00 TS -15.9850 62.5925 main 691 662 _________P____ -1 -15.9850 62.5925 TC 8 179
1898040S11063 1898 5 SI MM NOT_NAMED 1898-02-10 18:00:00 TS -16.4000 62.6000 main 662 635 _________O____ -1 -16.4000 62.6000 TC 8 177
1898040S11063 1898 5 SI MM NOT_NAMED 1898-02-10 21:00:00 TS -16.8075 62.6425 main 635 618 _________P____ -1 -16.8075 62.6425 TC 8 173
1898040S11063 1898 5 SI MM NOT_NAMED 1898-02-11 00:00:00 TS -17.2000 62.7000 main 618 601 _________O____ -1 -17.2000 62.7000 TC 8 172
1898040S11063 1898 5 SI MM NOT_NAMED 1898-02-11 03:00:00 TS -17.5575 62.7500 main 605 589 _________P____ -1 -17.5575 62.7500 TC 7 172
1898040S11063 1898 5 SI MM NOT_NAMED 1898-02-11 06:00:00 TS -17.9000 62.8000 main 589 575 _________O____ -1 -17.9000 62.8000 TC 7 172
1898040S11063 1898 5 SI MM NOT_NAMED 1898-02-11 09:00:00 TS -18.2575 62.8500 main 580 567 _________P____ -1 -18.2575 62.8500 TC 7 172
1898040S11063 1898 5 SI MM NOT_NAMED 1898-02-11 12:00:00 TS -18.6000 62.9000 main 567 556 _________O____ -1 -18.6000 62.9000 TC 7 172
1898040S11063 1898 5 SI MM NOT_NAMED 1898-02-11 15:00:00 TS -18.9150 62.9426 main 556 556 _________P____ -1 -18.9150 62.9426 TC 6 171
1898040S11063 1898 5 SI MM NOT_NAMED 1898-02-11 18:00:00 TS -19.2000 63.0000 main 557 555 _________O____ -1 -19.2000 63.0000 TC 5 165
1898040S11063 1898 5 SI MM NOT_NAMED 1898-02-11 21:00:00 TS -19.4425 63.0851 main 563 559 _________P____ -1 -19.4425 63.0851 TC 5 159
1898040S11063 1898 5 SI MM NOT_NAMED 1898-02-12 00:00:00 TS -19.7000 63.2000 main 568 566 _________O____ -1 -19.7000 63.2000 TC 6 158
1898040S11063 1898 5 SI MM NOT_NAMED 1898-02-12 03:00:00 TS -20.0350 63.3425 main 575 575 _________P____ -1 -20.0350 63.3425 TC 8 158
1898040S11063 1898 5 SI MM NOT_NAMED 1898-02-12 06:00:00 TS -20.4000 63.5000 main 594 594 _________O____ -1 -20.4000 63.5000 TC 8 158
1898040S11063 1898 5 SI MM NOT_NAMED 1898-02-12 09:00:00 TS -20.7650 63.6575 main 616 616 _________P____ -1 -20.7650 63.6575 TC 8 158
1898040S11063 1898 5 SI MM NOT_NAMED 1898-02-12 12:00:00 TS -21.1000 63.8000 main 630 630 _________O____ -1 -21.1000 63.8000 TC 6 159
1898040S11063 1898 5 SI MM NOT_NAMED 1898-02-12 15:00:00 TS -21.3650 63.9001 main 645 645 _________P____ -1 -21.3650 63.9001 TC 5 160
1898040S11063 1898 5 SI MM NOT_NAMED 1898-02-12 18:00:00 TS -21.6000 64.0000 main 659 659 _________O____ -1 -21.6000 64.0000 TC 5 156
1898040S11063 1898 5 SI MM NOT_NAMED 1898-02-12 21:00:00 TS -21.8425 64.1276 main 674 674 _________P____ -1 -21.8425 64.1276 TC 6 151
1898040S11063 1898 5 SI MM NOT_NAMED 1898-02-13 00:00:00 TS -22.1000 64.3000 main 703 703 _________O____ -1 -22.1000 64.3000 TC 7 146
1898040S11063 1898 5 SI MM NOT_NAMED 1898-02-13 03:00:00 TS -22.3925 64.5350 main 732 732 _________P____ -1 -22.3925 64.5350 TC 8 142
1898040S11063 1898 5 SI MM NOT_NAMED 1898-02-13 06:00:00 TS -22.7000 64.8000 main 772 772 _________O____ -1 -22.7000 64.8000 TC 8 141
1898040S11063 1898 5 SI MM NOT_NAMED 1898-02-13 09:00:00 TS -23.0075 65.0650 main 812 812 _________P____ -1 -23.0075 65.0650 TC 8 143
1898040S11063 1898 5 SI MM NOT_NAMED 1898-02-13 12:00:00 TS -23.3000 65.3000 main 843 843 _________O____ -1 -23.3000 65.3000 TC 7 146
1898040S11063 1898 5 SI MM NOT_NAMED 1898-02-13 15:00:00 TS -23.5574 65.4652 main 874 874 _________P____ -1 -23.5574 65.4652 TC 6 151
1898040S11063 1898 5 SI MM NOT_NAMED 1898-02-13 18:00:00 TS -23.8000 65.6000 main 892 892 _________O____ -1 -23.8000 65.6000 TC 6 153
1898040S11063 1898 5 SI MM NOT_NAMED 1898-02-13 21:00:00 TS -24.0499 65.7351 main 911 911 _________P____ -1 -24.0499 65.7351 TC 6 151
1898040S11063 1898 5 SI MM NOT_NAMED 1898-02-14 00:00:00 TS -24.3000 65.9000 main 943 943 _________O____ -1 -24.3000 65.9000 TC 6 144
1898040S11063 1898 5 SI MM NOT_NAMED 1898-02-14 03:00:00 TS -24.5575 66.1350 main 976 976 _________P____ -1 -24.5575 66.1350 TC 7 138
1898040S11063 1898 5 SI MM NOT_NAMED 1898-02-14 06:00:00 TS -24.8000 66.4000 main 1013 1013 _________O____ -1 -24.8000 66.4000 TC 7 133
1898040S11063 1898 5 SI MM NOT_NAMED 1898-02-14 09:00:00 TS -25.0075 66.6576 main 1050 1050 _________P____ -1 -25.0075 66.6576 TC 6 131
1898040S11063 1898 5 SI MM NOT_NAMED 1898-02-14 12:00:00 TS -25.2000 66.9000 main 1078 1078 _________O____ -1 -25.2000 66.9000 TC 6 135
1898040S11063 1898 5 SI MM NOT_NAMED 1898-02-14 15:00:00 TS -25.4074 67.1001 main 1106 1106 _________P____ -1 -25.4074 67.1001 TC 5 138
1898040S11063 1898 5 SI MM NOT_NAMED 1898-02-14 18:00:00 TS -25.6000 67.3000 main 1134 1134 _________O____ -1 -25.6000 67.3000 TC 5 132
1898040S11063 1898 5 SI MM NOT_NAMED 1898-02-14 21:00:00 TS -25.7601 67.5374 main 1162 1162 _________P____ -1 -25.7601 67.5374 TC 5 124
1898040S11063 1898 5 SI MM NOT_NAMED 1898-02-15 00:00:00 TS -25.9000 67.8000 main 1194 _________O____ -1 -25.9000 67.8000 TC 5 121

IBTrACS Databaseについて

本データベースは、米国NOAAが公開する1842年以降の世界の熱帯低気圧のベストトラックデータアーカイブInternational Best Track Archive for Climate Stewardship (IBTrACS)を、ウェブで閲覧しやすい形式に変換したものです。

最終更新日:2021-12-03